sensor_id;sensor_type;location;lat;lon;timestamp;P1;durP1;ratioP1;P2;durP2;ratioP2
28958;SDS011;16066;0.000;0.000;2024-03-06T06:01:53;20.80;;;14.50;;
28958;SDS011;16066;0.000;0.000;2024-03-06T06:04:19;21.30;;;13.30;;
28958;SDS011;16066;0.000;0.000;2024-03-06T06:06:45;17.00;;;12.57;;
28958;SDS011;16066;0.000;0.000;2024-03-06T06:09:10;16.00;;;10.90;;
28958;SDS011;16066;0.000;0.000;2024-03-06T06:11:41;18.33;;;13.60;;
28958;SDS011;16066;0.000;0.000;2024-03-06T06:14:08;25.10;;;16.87;;
28958;SDS011;16066;0.000;0.000;2024-03-06T06:16:39;21.50;;;16.80;;
28958;SDS011;16066;0.000;0.000;2024-03-06T06:19:07;16.17;;;11.90;;
28958;SDS011;16066;0.000;0.000;2024-03-06T06:21:34;17.07;;;13.00;;
28958;SDS011;16066;0.000;0.000;2024-03-06T06:24:01;23.70;;;17.17;;
28958;SDS011;16066;0.000;0.000;2024-03-06T06:26:28;21.27;;;15.87;;
28958;SDS011;16066;0.000;0.000;2024-03-06T06:28:54;21.20;;;14.80;;
28958;SDS011;16066;0.000;0.000;2024-03-06T06:31:20;27.30;;;16.90;;
28958;SDS011;16066;0.000;0.000;2024-03-06T06:33:45;27.67;;;18.10;;
28958;SDS011;16066;0.000;0.000;2024-03-06T06:36:12;23.00;;;15.63;;
28958;SDS011;16066;0.000;0.000;2024-03-06T06:38:37;23.17;;;16.80;;
28958;SDS011;16066;0.000;0.000;2024-03-06T06:41:03;24.20;;;16.63;;
28958;SDS011;16066;0.000;0.000;2024-03-06T06:43:29;20.47;;;14.70;;
28958;SDS011;16066;0.000;0.000;2024-03-06T06:45:55;20.70;;;14.40;;
28958;SDS011;16066;0.000;0.000;2024-03-06T06:48:20;23.80;;;15.43;;
28958;SDS011;16066;0.000;0.000;2024-03-06T06:50:46;21.77;;;14.53;;
28958;SDS011;16066;0.000;0.000;2024-03-06T06:53:13;22.23;;;15.10;;
28958;SDS011;16066;0.000;0.000;2024-03-06T06:55:38;24.67;;;16.50;;
28958;SDS011;16066;0.000;0.000;2024-03-06T06:58:04;24.93;;;16.57;;
28958;SDS011;16066;0.000;0.000;2024-03-06T07:00:30;20.50;;;14.17;;
28958;SDS011;16066;0.000;0.000;2024-03-06T07:02:56;20.13;;;14.50;;
28958;SDS011;16066;0.000;0.000;2024-03-06T07:05:23;24.13;;;14.90;;
28958;SDS011;16066;0.000;0.000;2024-03-06T07:07:49;20.90;;;14.83;;
28958;SDS011;16066;0.000;0.000;2024-03-06T07:10:14;22.30;;;14.03;;
28958;SDS011;16066;0.000;0.000;2024-03-06T07:12:40;18.53;;;13.80;;
28958;SDS011;16066;0.000;0.000;2024-03-06T07:15:06;24.10;;;13.80;;
28958;SDS011;16066;0.000;0.000;2024-03-06T07:17:32;16.60;;;12.40;;
28958;SDS011;16066;0.000;0.000;2024-03-06T07:19:57;19.47;;;12.40;;
28958;SDS011;16066;0.000;0.000;2024-03-06T07:22:23;19.63;;;12.57;;
28958;SDS011;16066;0.000;0.000;2024-03-06T07:24:49;14.60;;;11.73;;
28958;SDS011;16066;0.000;0.000;2024-03-06T07:27:15;20.03;;;12.60;;
28958;SDS011;16066;0.000;0.000;2024-03-06T07:29:41;19.27;;;11.70;;
28958;SDS011;16066;0.000;0.000;2024-03-06T07:32:06;18.93;;;12.40;;
28958;SDS011;16066;0.000;0.000;2024-03-06T07:34:32;16.20;;;12.70;;
28958;SDS011;16066;0.000;0.000;2024-03-06T07:36:58;14.87;;;10.80;;
28958;SDS011;16066;0.000;0.000;2024-03-06T07:39:26;15.13;;;11.70;;
28958;SDS011;16066;0.000;0.000;2024-03-06T07:41:52;13.93;;;10.40;;
28958;SDS011;16066;0.000;0.000;2024-03-06T07:44:18;13.20;;;10.10;;
28958;SDS011;16066;0.000;0.000;2024-03-06T07:46:45;14.40;;;10.77;;
28958;SDS011;16066;0.000;0.000;2024-03-06T07:49:10;14.37;;;10.37;;
28958;SDS011;16066;0.000;0.000;2024-03-06T07:51:36;15.80;;;10.30;;
28958;SDS011;16066;0.000;0.000;2024-03-06T07:54:01;14.03;;;9.87;;
28958;SDS011;16066;0.000;0.000;2024-03-06T07:56:29;13.70;;;9.70;;
28958;SDS011;16066;0.000;0.000;2024-03-06T07:58:54;15.57;;;10.60;;
28958;SDS011;16066;0.000;0.000;2024-03-06T08:01:20;12.87;;;9.00;;
28958;SDS011;16066;0.000;0.000;2024-03-06T08:03:47;14.00;;;8.30;;
28958;SDS011;16066;0.000;0.000;2024-03-06T08:06:13;12.67;;;8.67;;
28958;SDS011;16066;0.000;0.000;2024-03-06T08:08:41;11.97;;;8.47;;
28958;SDS011;16066;0.000;0.000;2024-03-06T08:11:09;9.90;;;7.70;;
28958;SDS011;16066;0.000;0.000;2024-03-06T08:13:36;11.93;;;8.33;;
28958;SDS011;16066;0.000;0.000;2024-03-06T08:16:02;11.23;;;7.67;;
28958;SDS011;16066;0.000;0.000;2024-03-06T08:18:28;11.30;;;7.00;;
28958;SDS011;16066;0.000;0.000;2024-03-06T08:20:54;9.40;;;7.37;;
28958;SDS011;16066;0.000;0.000;2024-03-06T08:23:20;12.17;;;8.00;;
28958;SDS011;16066;0.000;0.000;2024-03-06T08:25:45;9.33;;;6.97;;
28958;SDS011;16066;0.000;0.000;2024-03-06T08:28:11;10.47;;;6.77;;
28958;SDS011;16066;0.000;0.000;2024-03-06T08:30:37;9.33;;;6.33;;
28958;SDS011;16066;0.000;0.000;2024-03-06T08:33:02;8.37;;;6.27;;
28958;SDS011;16066;0.000;0.000;2024-03-06T08:35:29;9.73;;;6.63;;
28958;SDS011;16066;0.000;0.000;2024-03-06T08:37:55;9.13;;;6.63;;
28958;SDS011;16066;0.000;0.000;2024-03-06T08:40:20;10.10;;;7.57;;
28958;SDS011;16066;0.000;0.000;2024-03-06T08:42:46;7.70;;;6.03;;
28958;SDS011;16066;0.000;0.000;2024-03-06T08:45:13;8.87;;;6.77;;
28958;SDS011;16066;0.000;0.000;2024-03-06T08:47:39;9.70;;;6.63;;
28958;SDS011;16066;0.000;0.000;2024-03-06T08:50:05;11.40;;;5.93;;
28958;SDS011;16066;0.000;0.000;2024-03-06T08:52:32;8.90;;;5.80;;
28958;SDS011;16066;0.000;0.000;2024-03-06T08:54:59;8.60;;;6.00;;
28958;SDS011;16066;0.000;0.000;2024-03-06T08:57:25;7.47;;;5.90;;
28958;SDS011;16066;0.000;0.000;2024-03-06T08:59:53;9.37;;;5.70;;
28958;SDS011;16066;0.000;0.000;2024-03-06T09:02:22;9.23;;;5.33;;
28958;SDS011;16066;0.000;0.000;2024-03-06T09:04:47;7.00;;;5.60;;
28958;SDS011;16066;0.000;0.000;2024-03-06T09:07:13;6.37;;;5.20;;
28958;SDS011;16066;0.000;0.000;2024-03-06T09:09:39;7.37;;;4.70;;
28958;SDS011;16066;0.000;0.000;2024-03-06T09:12:06;6.37;;;4.90;;
28958;SDS011;16066;0.000;0.000;2024-03-06T09:14:35;10.40;;;5.50;;
28958;SDS011;16066;0.000;0.000;2024-03-06T09:17:01;13.80;;;5.30;;
28958;SDS011;16066;0.000;0.000;2024-03-06T09:19:28;8.07;;;4.67;;
28958;SDS011;16066;0.000;0.000;2024-03-06T09:21:53;9.50;;;5.67;;
28958;SDS011;16066;0.000;0.000;2024-03-06T09:24:22;8.30;;;4.77;;
28958;SDS011;16066;0.000;0.000;2024-03-06T09:26:50;8.63;;;5.60;;
28958;SDS011;16066;0.000;0.000;2024-03-06T09:29:15;6.50;;;4.80;;
28958;SDS011;16066;0.000;0.000;2024-03-06T09:31:42;7.50;;;5.33;;
28958;SDS011;16066;0.000;0.000;2024-03-06T09:34:08;7.97;;;4.80;;
28958;SDS011;16066;0.000;0.000;2024-03-06T09:36:37;8.90;;;5.43;;
28958;SDS011;16066;0.000;0.000;2024-03-06T09:39:03;7.30;;;4.73;;
28958;SDS011;16066;0.000;0.000;2024-03-06T09:41:33;9.30;;;5.00;;
28958;SDS011;16066;0.000;0.000;2024-03-06T09:43:59;8.70;;;5.07;;
28958;SDS011;16066;0.000;0.000;2024-03-06T09:46:25;6.80;;;4.83;;
28958;SDS011;16066;0.000;0.000;2024-03-06T09:48:52;6.30;;;4.80;;
28958;SDS011;16066;0.000;0.000;2024-03-06T09:51:18;7.43;;;4.73;;
28958;SDS011;16066;0.000;0.000;2024-03-06T09:53:45;11.03;;;5.47;;
28958;SDS011;16066;0.000;0.000;2024-03-06T09:56:14;8.43;;;5.20;;
28958;SDS011;16066;0.000;0.000;2024-03-06T09:58:40;7.33;;;4.93;;
28958;SDS011;16066;0.000;0.000;2024-03-06T10:01:05;8.23;;;5.23;;
28958;SDS011;16066;0.000;0.000;2024-03-06T10:03:33;7.40;;;5.07;;
28958;SDS011;16066;0.000;0.000;2024-03-06T10:05:59;7.70;;;5.10;;
28958;SDS011;16066;0.000;0.000;2024-03-06T10:08:25;13.40;;;8.63;;
28958;SDS011;16066;0.000;0.000;2024-03-06T10:10:51;17.90;;;12.00;;
28958;SDS011;16066;0.000;0.000;2024-03-06T10:13:17;51.60;;;32.87;;
28958;SDS011;16066;0.000;0.000;2024-03-06T10:15:55;63.03;;;35.43;;
28958;SDS011;16066;0.000;0.000;2024-03-06T10:18:28;58.00;;;36.80;;
28958;SDS011;16066;0.000;0.000;2024-03-06T10:20:55;93.63;;;57.00;;
28958;SDS011;16066;0.000;0.000;2024-03-06T10:23:20;104.13;;;62.90;;
28958;SDS011;16066;0.000;0.000;2024-03-06T10:25:46;124.77;;;71.97;;
28958;SDS011;16066;0.000;0.000;2024-03-06T10:28:16;112.17;;;69.20;;
28958;SDS011;16066;0.000;0.000;2024-03-06T10:30:42;138.47;;;75.13;;
28958;SDS011;16066;0.000;0.000;2024-03-06T10:33:09;146.07;;;86.70;;
28958;SDS011;16066;0.000;0.000;2024-03-06T10:35:35;161.90;;;101.70;;
28958;SDS011;16066;0.000;0.000;2024-03-06T10:38:05;170.60;;;102.07;;
28958;SDS011;16066;0.000;0.000;2024-03-06T10:40:35;210.40;;;119.03;;
28958;SDS011;16066;0.000;0.000;2024-03-06T10:43:03;272.03;;;153.13;;
28958;SDS011;16066;0.000;0.000;2024-03-06T10:47:58;218.83;;;132.07;;
28958;SDS011;16066;0.000;0.000;2024-03-06T10:50:24;230.27;;;136.00;;
28958;SDS011;16066;0.000;0.000;2024-03-06T10:52:51;185.33;;;111.67;;
28958;SDS011;16066;0.000;0.000;2024-03-06T10:55:20;169.13;;;101.90;;
28958;SDS011;16066;0.000;0.000;2024-03-06T10:57:46;179.17;;;102.13;;
28958;SDS011;16066;0.000;0.000;2024-03-06T11:00:13;168.30;;;98.83;;
28958;SDS011;16066;0.000;0.000;2024-03-06T11:02:44;146.47;;;91.00;;
28958;SDS011;16066;0.000;0.000;2024-03-06T11:05:12;149.43;;;83.63;;
28958;SDS011;16066;0.000;0.000;2024-03-06T11:07:39;131.13;;;79.67;;
28958;SDS011;16066;0.000;0.000;2024-03-06T11:10:04;126.20;;;76.33;;
28958;SDS011;16066;0.000;0.000;2024-03-06T11:12:37;102.03;;;59.80;;
28958;SDS011;16066;0.000;0.000;2024-03-06T11:15:16;107.33;;;60.13;;
28958;SDS011;16066;0.000;0.000;2024-03-06T11:17:42;94.60;;;54.07;;
28958;SDS011;16066;0.000;0.000;2024-03-06T11:20:08;83.00;;;48.40;;
28958;SDS011;16066;0.000;0.000;2024-03-06T11:28:21;89.60;;;55.87;;
28958;SDS011;16066;0.000;0.000;2024-03-06T11:31:05;69.97;;;45.97;;
28958;SDS011;16066;0.000;0.000;2024-03-06T11:33:41;65.63;;;39.63;;
28958;SDS011;16066;0.000;0.000;2024-03-06T11:36:14;66.40;;;38.53;;
28958;SDS011;16066;0.000;0.000;2024-03-06T11:38:53;56.40;;;36.73;;
28958;SDS011;16066;0.000;0.000;2024-03-06T11:41:23;43.27;;;28.80;;
28958;SDS011;16066;0.000;0.000;2024-03-06T11:43:50;40.90;;;27.30;;
28958;SDS011;16066;0.000;0.000;2024-03-06T11:46:18;46.90;;;29.33;;
28958;SDS011;16066;0.000;0.000;2024-03-06T11:48:51;44.80;;;27.70;;
28958;SDS011;16066;0.000;0.000;2024-03-06T11:51:20;39.20;;;26.70;;
28958;SDS011;16066;0.000;0.000;2024-03-06T11:53:50;42.00;;;24.73;;
28958;SDS011;16066;0.000;0.000;2024-03-06T11:56:17;43.30;;;26.80;;
28958;SDS011;16066;0.000;0.000;2024-03-06T11:58:43;36.93;;;21.60;;
28958;SDS011;16066;0.000;0.000;2024-03-06T12:01:10;35.70;;;22.60;;
28958;SDS011;16066;0.000;0.000;2024-03-06T12:03:35;30.40;;;20.47;;
28958;SDS011;16066;0.000;0.000;2024-03-06T12:06:01;30.17;;;19.27;;
28958;SDS011;16066;0.000;0.000;2024-03-06T12:08:28;30.53;;;19.80;;
28958;SDS011;16066;0.000;0.000;2024-03-06T12:10:53;25.23;;;17.90;;
28958;SDS011;16066;0.000;0.000;2024-03-06T12:13:23;29.90;;;17.97;;
28958;SDS011;16066;0.000;0.000;2024-03-06T12:15:49;23.23;;;16.00;;
28958;SDS011;16066;0.000;0.000;2024-03-06T12:18:16;28.50;;;17.07;;
28958;SDS011;16066;0.000;0.000;2024-03-06T12:20:43;24.50;;;15.20;;
28958;SDS011;16066;0.000;0.000;2024-03-06T12:23:20;20.07;;;14.23;;
28958;SDS011;16066;0.000;0.000;2024-03-06T12:25:48;23.53;;;13.90;;
28958;SDS011;16066;0.000;0.000;2024-03-06T12:28:14;24.20;;;11.90;;
28958;SDS011;16066;0.000;0.000;2024-03-06T12:30:41;14.53;;;10.17;;
28958;SDS011;16066;0.000;0.000;2024-03-06T12:33:10;18.90;;;8.93;;
28958;SDS011;16066;0.000;0.000;2024-03-06T12:35:39;16.67;;;9.00;;
28958;SDS011;16066;0.000;0.000;2024-03-06T12:38:15;12.80;;;9.33;;
28958;SDS011;16066;0.000;0.000;2024-03-06T12:40:41;15.20;;;9.10;;
28958;SDS011;16066;0.000;0.000;2024-03-06T12:43:08;18.33;;;8.70;;
28958;SDS011;16066;0.000;0.000;2024-03-06T12:45:34;12.60;;;8.30;;
28958;SDS011;16066;0.000;0.000;2024-03-06T12:48:00;18.90;;;7.77;;
28958;SDS011;16066;0.000;0.000;2024-03-06T12:50:28;32.23;;;9.23;;
28958;SDS011;16066;0.000;0.000;2024-03-06T12:52:53;37.53;;;9.60;;
28958;SDS011;16066;0.000;0.000;2024-03-06T12:55:19;16.10;;;8.60;;
28958;SDS011;16066;0.000;0.000;2024-03-06T12:57:45;25.80;;;8.00;;
28958;SDS011;16066;0.000;0.000;2024-03-06T13:00:11;10.23;;;7.40;;
28958;SDS011;16066;0.000;0.000;2024-03-06T13:02:41;16.10;;;8.07;;
28958;SDS011;16066;0.000;0.000;2024-03-06T13:05:10;10.53;;;7.07;;
28958;SDS011;16066;0.000;0.000;2024-03-06T13:07:36;17.10;;;7.87;;
28958;SDS011;16066;0.000;0.000;2024-03-06T13:10:02;12.73;;;7.90;;
28958;SDS011;16066;0.000;0.000;2024-03-06T13:12:28;11.40;;;7.20;;
28958;SDS011;16066;0.000;0.000;2024-03-06T13:14:54;8.53;;;6.90;;
28958;SDS011;16066;0.000;0.000;2024-03-06T13:17:19;8.93;;;6.93;;
28958;SDS011;16066;0.000;0.000;2024-03-06T13:19:45;9.17;;;6.50;;
28958;SDS011;16066;0.000;0.000;2024-03-06T13:22:11;7.70;;;6.20;;
28958;SDS011;16066;0.000;0.000;2024-03-06T13:24:36;8.57;;;6.27;;
28958;SDS011;16066;0.000;0.000;2024-03-06T13:27:03;9.23;;;6.83;;
28958;SDS011;16066;0.000;0.000;2024-03-06T13:29:28;7.93;;;5.63;;
28958;SDS011;16066;0.000;0.000;2024-03-06T13:31:54;7.60;;;5.67;;
28958;SDS011;16066;0.000;0.000;2024-03-06T13:34:20;10.00;;;5.20;;
28958;SDS011;16066;0.000;0.000;2024-03-06T13:36:45;19.07;;;4.63;;
28958;SDS011;16066;0.000;0.000;2024-03-06T13:39:11;3.60;;;3.00;;
28958;SDS011;16066;0.000;0.000;2024-03-06T13:41:37;6.20;;;3.33;;
28958;SDS011;16066;0.000;0.000;2024-03-06T13:44:02;6.77;;;2.80;;
28958;SDS011;16066;0.000;0.000;2024-03-06T13:46:28;4.70;;;3.17;;
28958;SDS011;16066;0.000;0.000;2024-03-06T13:48:53;2.90;;;2.43;;
28958;SDS011;16066;0.000;0.000;2024-03-06T13:51:19;3.47;;;2.50;;
28958;SDS011;16066;0.000;0.000;2024-03-06T13:53:44;3.10;;;2.60;;
28958;SDS011;16066;0.000;0.000;2024-03-06T13:56:10;5.13;;;2.50;;
28958;SDS011;16066;0.000;0.000;2024-03-06T13:58:35;6.80;;;2.63;;
28958;SDS011;16066;0.000;0.000;2024-03-06T14:01:01;2.40;;;2.10;;
28958;SDS011;16066;0.000;0.000;2024-03-06T14:03:27;4.93;;;2.10;;
28958;SDS011;16066;0.000;0.000;2024-03-06T14:05:52;2.63;;;1.90;;
28958;SDS011;16066;0.000;0.000;2024-03-06T14:08:18;4.30;;;3.00;;
28958;SDS011;16066;0.000;0.000;2024-03-06T14:10:43;4.10;;;2.60;;
28958;SDS011;16066;0.000;0.000;2024-03-06T14:13:10;6.23;;;2.63;;
28958;SDS011;16066;0.000;0.000;2024-03-06T14:15:36;6.60;;;2.83;;
28958;SDS011;16066;0.000;0.000;2024-03-06T14:18:01;2.80;;;2.43;;
28958;SDS011;16066;0.000;0.000;2024-03-06T14:20:27;9.70;;;3.83;;
28958;SDS011;16066;0.000;0.000;2024-03-06T14:22:53;3.10;;;2.43;;
28958;SDS011;16066;0.000;0.000;2024-03-06T14:25:19;3.43;;;2.10;;
28958;SDS011;16066;0.000;0.000;2024-03-06T14:27:44;2.70;;;2.20;;
28958;SDS011;16066;0.000;0.000;2024-03-06T14:30:12;4.00;;;2.20;;
28958;SDS011;16066;0.000;0.000;2024-03-06T14:32:38;3.80;;;2.67;;
28958;SDS011;16066;0.000;0.000;2024-03-06T14:35:04;2.93;;;2.43;;
28958;SDS011;16066;0.000;0.000;2024-03-06T14:37:30;4.57;;;2.80;;
28958;SDS011;16066;0.000;0.000;2024-03-06T14:39:56;3.00;;;2.33;;
28958;SDS011;16066;0.000;0.000;2024-03-06T14:42:21;2.50;;;2.17;;
28958;SDS011;16066;0.000;0.000;2024-03-06T14:44:48;3.73;;;2.30;;
28958;SDS011;16066;0.000;0.000;2024-03-06T14:47:14;2.07;;;1.83;;
28958;SDS011;16066;0.000;0.000;2024-03-06T14:49:39;2.83;;;2.37;;
28958;SDS011;16066;0.000;0.000;2024-03-06T14:52:07;2.70;;;2.20;;
28958;SDS011;16066;0.000;0.000;2024-03-06T14:54:34;5.07;;;2.50;;
28958;SDS011;16066;0.000;0.000;2024-03-06T14:56:59;3.53;;;2.60;;
28958;SDS011;16066;0.000;0.000;2024-03-06T14:59:25;2.57;;;2.30;;
28958;SDS011;16066;0.000;0.000;2024-03-06T15:01:50;3.13;;;2.47;;
28958;SDS011;16066;0.000;0.000;2024-03-06T15:04:16;3.47;;;2.43;;
28958;SDS011;16066;0.000;0.000;2024-03-06T15:06:42;2.83;;;2.37;;
28958;SDS011;16066;0.000;0.000;2024-03-06T15:09:08;3.30;;;2.43;;
28958;SDS011;16066;0.000;0.000;2024-03-06T15:11:38;3.70;;;3.03;;
28958;SDS011;16066;0.000;0.000;2024-03-06T15:14:04;3.33;;;2.37;;
28958;SDS011;16066;0.000;0.000;2024-03-06T15:16:30;4.17;;;2.83;;
28958;SDS011;16066;0.000;0.000;2024-03-06T15:18:55;4.13;;;2.33;;
28958;SDS011;16066;0.000;0.000;2024-03-06T15:21:22;2.90;;;2.60;;
28958;SDS011;16066;0.000;0.000;2024-03-06T15:23:48;3.33;;;2.57;;
28958;SDS011;16066;0.000;0.000;2024-03-06T15:26:15;2.93;;;2.50;;
28958;SDS011;16066;0.000;0.000;2024-03-06T15:28:41;3.80;;;2.50;;
28958;SDS011;16066;0.000;0.000;2024-03-06T15:31:06;3.50;;;2.90;;
28958;SDS011;16066;0.000;0.000;2024-03-06T15:33:32;2.83;;;2.40;;
28958;SDS011;16066;0.000;0.000;2024-03-06T15:35:58;3.10;;;2.23;;
28958;SDS011;16066;0.000;0.000;2024-03-06T15:38:25;4.33;;;3.17;;
28958;SDS011;16066;0.000;0.000;2024-03-06T15:40:50;2.60;;;2.40;;
28958;SDS011;16066;0.000;0.000;2024-03-06T15:43:17;3.90;;;2.97;;
28958;SDS011;16066;0.000;0.000;2024-03-06T15:45:42;2.80;;;2.37;;
28958;SDS011;16066;0.000;0.000;2024-03-06T15:48:08;3.13;;;2.73;;
28958;SDS011;16066;0.000;0.000;2024-03-06T15:50:38;4.87;;;2.87;;
28958;SDS011;16066;0.000;0.000;2024-03-06T15:53:07;4.50;;;2.93;;
28958;SDS011;16066;0.000;0.000;2024-03-06T15:55:33;12.93;;;3.03;;
28958;SDS011;16066;0.000;0.000;2024-03-06T15:58:03;4.60;;;3.37;;
28958;SDS011;16066;0.000;0.000;2024-03-06T16:00:29;8.90;;;3.43;;
28958;SDS011;16066;0.000;0.000;2024-03-06T16:02:55;4.13;;;2.70;;
28958;SDS011;16066;0.000;0.000;2024-03-06T16:05:20;6.47;;;3.37;;
28958;SDS011;16066;0.000;0.000;2024-03-06T16:07:46;3.47;;;2.83;;
28958;SDS011;16066;0.000;0.000;2024-03-06T16:10:11;3.50;;;2.67;;
28958;SDS011;16066;0.000;0.000;2024-03-06T16:12:37;4.03;;;3.40;;
28958;SDS011;16066;0.000;0.000;2024-03-06T16:15:03;2.83;;;2.60;;
28958;SDS011;16066;0.000;0.000;2024-03-06T16:17:29;5.10;;;3.67;;
28958;SDS011;16066;0.000;0.000;2024-03-06T16:19:56;5.50;;;3.40;;
28958;SDS011;16066;0.000;0.000;2024-03-06T16:22:21;6.73;;;3.70;;
28958;SDS011;16066;0.000;0.000;2024-03-06T16:24:48;4.10;;;3.20;;
28958;SDS011;16066;0.000;0.000;2024-03-06T16:27:13;4.77;;;3.67;;
28958;SDS011;16066;0.000;0.000;2024-03-06T16:29:39;5.10;;;3.60;;
28958;SDS011;16066;0.000;0.000;2024-03-06T16:32:05;3.90;;;3.50;;
28958;SDS011;16066;0.000;0.000;2024-03-06T16:34:31;5.13;;;3.50;;
28958;SDS011;16066;0.000;0.000;2024-03-06T16:36:58;3.63;;;3.30;;
28958;SDS011;16066;0.000;0.000;2024-03-06T16:39:25;4.90;;;3.60;;
28958;SDS011;16066;0.000;0.000;2024-03-06T16:41:50;3.83;;;3.20;;
28958;SDS011;16066;0.000;0.000;2024-03-06T16:44:16;5.37;;;3.40;;
28958;SDS011;16066;0.000;0.000;2024-03-06T16:46:41;5.17;;;3.90;;
28958;SDS011;16066;0.000;0.000;2024-03-06T16:49:07;5.13;;;4.03;;
28958;SDS011;16066;0.000;0.000;2024-03-06T16:51:32;5.23;;;4.07;;
28958;SDS011;16066;0.000;0.000;2024-03-06T16:53:58;7.23;;;3.90;;
28958;SDS011;16066;0.000;0.000;2024-03-06T16:56:28;4.57;;;3.50;;
28958;SDS011;16066;0.000;0.000;2024-03-06T16:58:54;4.17;;;3.20;;
28958;SDS011;16066;0.000;0.000;2024-03-06T17:01:19;3.57;;;3.27;;
28958;SDS011;16066;0.000;0.000;2024-03-06T17:03:45;5.20;;;2.80;;
28958;SDS011;16066;0.000;0.000;2024-03-06T17:06:11;5.40;;;3.27;;
28958;SDS011;16066;0.000;0.000;2024-03-06T17:08:36;3.77;;;3.03;;
28958;SDS011;16066;0.000;0.000;2024-03-06T17:11:02;5.80;;;3.40;;
28958;SDS011;16066;0.000;0.000;2024-03-06T17:13:28;3.60;;;3.27;;
28958;SDS011;16066;0.000;0.000;2024-03-06T17:15:53;4.43;;;3.60;;
28958;SDS011;16066;0.000;0.000;2024-03-06T17:18:20;4.90;;;3.47;;
28958;SDS011;16066;0.000;0.000;2024-03-06T17:20:46;3.70;;;3.40;;
28958;SDS011;16066;0.000;0.000;2024-03-06T17:23:12;4.60;;;3.70;;
28958;SDS011;16066;0.000;0.000;2024-03-06T17:25:37;5.23;;;4.07;;
28958;SDS011;16066;0.000;0.000;2024-03-06T17:28:03;6.30;;;3.40;;
28958;SDS011;16066;0.000;0.000;2024-03-06T17:30:29;4.50;;;3.33;;
28958;SDS011;16066;0.000;0.000;2024-03-06T17:32:55;4.03;;;3.60;;
28958;SDS011;16066;0.000;0.000;2024-03-06T17:35:21;4.93;;;3.83;;
28958;SDS011;16066;0.000;0.000;2024-03-06T17:37:46;6.37;;;4.13;;
28958;SDS011;16066;0.000;0.000;2024-03-06T17:40:13;5.03;;;3.83;;
28958;SDS011;16066;0.000;0.000;2024-03-06T17:42:39;4.23;;;3.47;;
28958;SDS011;16066;0.000;0.000;2024-03-06T17:45:05;5.73;;;4.00;;
28958;SDS011;16066;0.000;0.000;2024-03-06T17:47:32;4.53;;;3.60;;
28958;SDS011;16066;0.000;0.000;2024-03-06T17:49:59;4.40;;;4.00;;
28958;SDS011;16066;0.000;0.000;2024-03-06T17:52:24;4.13;;;3.10;;
28958;SDS011;16066;0.000;0.000;2024-03-06T17:54:50;3.30;;;3.00;;
28958;SDS011;16066;0.000;0.000;2024-03-06T17:57:15;4.53;;;3.90;;
28958;SDS011;16066;0.000;0.000;2024-03-06T17:59:41;5.23;;;3.70;;
28958;SDS011;16066;0.000;0.000;2024-03-06T18:02:07;5.50;;;4.20;;
28958;SDS011;16066;0.000;0.000;2024-03-06T18:04:32;7.40;;;3.60;;
28958;SDS011;16066;0.000;0.000;2024-03-06T18:06:58;5.23;;;3.80;;
28958;SDS011;16066;0.000;0.000;2024-03-06T18:09:23;5.40;;;3.90;;
28958;SDS011;16066;0.000;0.000;2024-03-06T18:11:49;4.90;;;3.27;;
28958;SDS011;16066;0.000;0.000;2024-03-06T18:14:15;5.83;;;3.20;;
28958;SDS011;16066;0.000;0.000;2024-03-06T18:16:44;4.00;;;3.60;;
28958;SDS011;16066;0.000;0.000;2024-03-06T18:19:09;4.80;;;3.80;;
28958;SDS011;16066;0.000;0.000;2024-03-06T18:21:35;4.37;;;3.80;;
28958;SDS011;16066;0.000;0.000;2024-03-06T18:24:01;4.40;;;3.50;;
28958;SDS011;16066;0.000;0.000;2024-03-06T18:26:26;5.93;;;4.00;;
28958;SDS011;16066;0.000;0.000;2024-03-06T18:28:52;7.10;;;3.60;;
28958;SDS011;16066;0.000;0.000;2024-03-06T18:31:17;4.13;;;3.73;;
28958;SDS011;16066;0.000;0.000;2024-03-06T18:33:43;5.50;;;3.70;;
28958;SDS011;16066;0.000;0.000;2024-03-06T18:36:08;4.00;;;3.50;;
28958;SDS011;16066;0.000;0.000;2024-03-06T18:38:34;7.20;;;4.50;;
28958;SDS011;16066;0.000;0.000;2024-03-06T18:41:00;5.30;;;4.00;;
28958;SDS011;16066;0.000;0.000;2024-03-06T18:43:26;5.93;;;4.10;;
28958;SDS011;16066;0.000;0.000;2024-03-06T18:45:51;6.00;;;3.50;;
28958;SDS011;16066;0.000;0.000;2024-03-06T18:48:17;6.70;;;4.17;;
28958;SDS011;16066;0.000;0.000;2024-03-06T18:50:42;5.33;;;3.90;;
28958;SDS011;16066;0.000;0.000;2024-03-06T18:53:09;4.80;;;3.70;;
28958;SDS011;16066;0.000;0.000;2024-03-06T18:55:34;5.80;;;4.03;;
28958;SDS011;16066;0.000;0.000;2024-03-06T18:58:02;6.00;;;4.37;;
28958;SDS011;16066;0.000;0.000;2024-03-06T19:00:28;4.20;;;3.80;;
28958;SDS011;16066;0.000;0.000;2024-03-06T19:02:54;5.23;;;4.30;;
28958;SDS011;16066;0.000;0.000;2024-03-06T19:05:20;21.87;;;3.43;;
28958;SDS011;16066;0.000;0.000;2024-03-06T19:07:45;3.70;;;2.97;;
28958;SDS011;16066;0.000;0.000;2024-03-06T19:10:11;5.90;;;4.13;;
28958;SDS011;16066;0.000;0.000;2024-03-06T19:12:37;5.50;;;4.57;;
28958;SDS011;16066;0.000;0.000;2024-03-06T19:15:03;5.80;;;4.10;;
28958;SDS011;16066;0.000;0.000;2024-03-06T19:17:31;4.20;;;3.37;;
28958;SDS011;16066;0.000;0.000;2024-03-06T19:19:57;5.40;;;3.60;;
28958;SDS011;16066;0.000;0.000;2024-03-06T19:22:23;5.93;;;3.63;;
28958;SDS011;16066;0.000;0.000;2024-03-06T19:24:50;5.07;;;3.50;;
28958;SDS011;16066;0.000;0.000;2024-03-06T19:27:16;4.30;;;3.60;;
28958;SDS011;16066;0.000;0.000;2024-03-06T19:29:47;5.03;;;4.00;;
28958;SDS011;16066;0.000;0.000;2024-03-06T19:32:12;6.03;;;3.90;;
28958;SDS011;16066;0.000;0.000;2024-03-06T19:34:38;6.17;;;4.63;;
28958;SDS011;16066;0.000;0.000;2024-03-06T19:37:03;5.97;;;4.00;;
28958;SDS011;16066;0.000;0.000;2024-03-06T19:39:29;6.57;;;4.03;;
28958;SDS011;16066;0.000;0.000;2024-03-06T19:41:54;4.33;;;3.70;;
28958;SDS011;16066;0.000;0.000;2024-03-06T19:44:21;5.73;;;4.60;;
28958;SDS011;16066;0.000;0.000;2024-03-06T19:46:51;5.13;;;3.67;;
28958;SDS011;16066;0.000;0.000;2024-03-06T19:49:18;7.03;;;4.67;;
28958;SDS011;16066;0.000;0.000;2024-03-06T19:51:46;4.97;;;3.87;;
28958;SDS011;16066;0.000;0.000;2024-03-06T19:54:12;6.03;;;4.40;;
28958;SDS011;16066;0.000;0.000;2024-03-06T19:56:37;5.30;;;3.73;;
28958;SDS011;16066;0.000;0.000;2024-03-06T19:59:03;7.53;;;4.30;;
28958;SDS011;16066;0.000;0.000;2024-03-06T20:01:31;4.70;;;3.57;;
28958;SDS011;16066;0.000;0.000;2024-03-06T20:03:57;8.40;;;4.57;;
28958;SDS011;16066;0.000;0.000;2024-03-06T20:06:23;8.23;;;5.03;;
28958;SDS011;16066;0.000;0.000;2024-03-06T20:08:51;6.50;;;4.13;;
28958;SDS011;16066;0.000;0.000;2024-03-06T20:11:17;5.20;;;4.40;;
28958;SDS011;16066;0.000;0.000;2024-03-06T20:13:45;6.90;;;3.67;;
28958;SDS011;16066;0.000;0.000;2024-03-06T20:16:11;4.30;;;3.90;;
28958;SDS011;16066;0.000;0.000;2024-03-06T20:18:37;3.83;;;3.47;;
28958;SDS011;16066;0.000;0.000;2024-03-06T20:21:02;5.17;;;3.70;;
28958;SDS011;16066;0.000;0.000;2024-03-06T20:23:28;6.00;;;3.57;;
28958;SDS011;16066;0.000;0.000;2024-03-06T20:25:54;7.17;;;4.70;;
28958;SDS011;16066;0.000;0.000;2024-03-06T20:28:20;5.23;;;3.83;;
28958;SDS011;16066;0.000;0.000;2024-03-06T20:30:45;3.60;;;3.00;;
28958;SDS011;16066;0.000;0.000;2024-03-06T20:33:11;4.73;;;3.23;;
28958;SDS011;16066;0.000;0.000;2024-03-06T20:35:37;5.00;;;3.30;;
28958;SDS011;16066;0.000;0.000;2024-03-06T20:38:03;3.50;;;3.00;;
28958;SDS011;16066;0.000;0.000;2024-03-06T20:40:29;4.00;;;3.23;;
28958;SDS011;16066;0.000;0.000;2024-03-06T20:42:57;5.63;;;3.87;;
28958;SDS011;16066;0.000;0.000;2024-03-06T20:45:23;4.10;;;3.20;;
28958;SDS011;16066;0.000;0.000;2024-03-06T20:47:49;4.70;;;3.47;;
28958;SDS011;16066;0.000;0.000;2024-03-06T20:50:14;4.77;;;3.90;;
28958;SDS011;16066;0.000;0.000;2024-03-06T20:52:40;6.10;;;3.97;;
28958;SDS011;16066;0.000;0.000;2024-03-06T20:55:06;7.70;;;4.80;;